createdAt,value
2018-07-13T00:01:39.016Z,16.70
2018-07-13T00:04:31.794Z,16.60
2018-07-13T00:07:28.250Z,16.60
2018-07-13T00:10:19.690Z,16.60
2018-07-13T00:13:16.343Z,16.80
2018-07-13T00:16:13.872Z,16.70
2018-07-13T00:19:13.074Z,16.70
2018-07-13T00:22:05.875Z,16.80
2018-07-13T00:25:03.090Z,16.80
2018-07-13T00:27:54.250Z,16.80
2018-07-13T00:30:50.250Z,16.70
2018-07-13T00:33:41.310Z,16.60
2018-07-13T00:36:38.275Z,16.60
2018-07-13T00:39:30.467Z,16.50
2018-07-13T00:42:25.427Z,16.60
2018-07-13T00:45:17.357Z,16.60
2018-07-13T00:48:13.442Z,16.70
2018-07-13T00:51:04.613Z,16.70
2018-07-13T00:54:00.511Z,16.50
2018-07-13T00:56:52.020Z,16.50
2018-07-13T00:59:46.727Z,16.60
2018-07-13T01:02:37.657Z,16.50
2018-07-13T01:05:32.835Z,16.40
2018-07-13T01:08:24.085Z,16.40
2018-07-13T01:11:19.028Z,16.30
2018-07-13T01:14:10.830Z,16.20
2018-07-13T01:17:06.111Z,16.20
2018-07-13T01:19:57.841Z,16.20
2018-07-13T01:22:53.250Z,16.10
2018-07-13T01:25:44.890Z,16.10
2018-07-13T01:31:24.625Z,16.00
2018-07-13T01:34:20.196Z,16.00
2018-07-13T01:37:11.465Z,15.90
2018-07-13T01:40:07.325Z,16.00
2018-07-13T01:42:59.121Z,16.00
2018-07-13T01:45:54.460Z,16.00
2018-07-13T01:48:45.961Z,16.00
2018-07-13T01:51:42.410Z,15.90
2018-07-13T01:54:33.862Z,16.00
2018-07-13T01:57:29.450Z,15.90
2018-07-13T02:00:21.435Z,15.90
2018-07-13T02:03:15.734Z,15.80
2018-07-13T02:06:07.255Z,15.70
2018-07-13T02:11:45.566Z,15.60
2018-07-13T02:14:42.529Z,15.60
2018-07-13T02:17:33.889Z,15.60
2018-07-13T02:20:28.799Z,15.50
2018-07-13T02:23:19.789Z,15.50
2018-07-13T02:26:14.105Z,15.40
2018-07-13T02:29:06.416Z,15.40
2018-07-13T02:32:01.190Z,15.40
2018-07-13T02:34:53.883Z,15.30
2018-07-13T02:37:49.210Z,15.20
2018-07-13T02:40:40.984Z,15.30
2018-07-13T02:43:38.130Z,15.20
2018-07-13T02:46:30.860Z,15.20
2018-07-13T02:49:26.245Z,15.20
2018-07-13T02:52:17.425Z,15.10
2018-07-13T02:55:13.248Z,15.00
2018-07-13T02:58:04.605Z,15.00
2018-07-13T03:01:00.450Z,14.90
2018-07-13T03:03:51.522Z,14.80
2018-07-13T03:06:45.653Z,14.70
2018-07-13T03:09:37.360Z,14.70
2018-07-13T03:12:31.771Z,14.70
2018-07-13T03:15:25.295Z,14.70
2018-07-13T03:18:19.814Z,14.70
2018-07-13T03:21:12.285Z,14.60
2018-07-13T03:24:07.895Z,14.70
2018-07-13T03:27:00.932Z,14.70
2018-07-13T03:29:57.681Z,14.70
2018-07-13T03:32:49.133Z,14.70
2018-07-13T03:35:43.840Z,14.60
2018-07-13T03:38:35.365Z,14.60
2018-07-13T03:41:30.016Z,14.60
2018-07-13T03:44:21.105Z,14.60
2018-07-13T03:49:59.845Z,14.60
2018-07-13T03:52:54.263Z,14.60
2018-07-13T03:55:45.050Z,14.70
2018-07-13T03:58:40.462Z,14.60
2018-07-13T04:01:31.530Z,14.60
2018-07-13T04:04:27.580Z,14.60
2018-07-13T04:07:18.661Z,14.60
2018-07-13T04:10:13.760Z,14.60
2018-07-13T04:13:05.518Z,14.60
2018-07-13T04:16:01.087Z,14.70
2018-07-13T04:18:53.065Z,14.70
2018-07-13T04:21:47.995Z,14.70
2018-07-13T04:24:39.325Z,14.70
2018-07-13T04:27:34.966Z,14.80
2018-07-13T04:30:26.200Z,14.80
2018-07-13T04:33:22.111Z,14.80
2018-07-13T04:36:13.865Z,14.90
2018-07-13T04:39:09.224Z,15.00
2018-07-13T04:42:01.053Z,15.10
2018-07-13T04:44:57.307Z,15.10
2018-07-13T04:47:48.270Z,15.20
2018-07-13T04:50:44.390Z,15.20
2018-07-13T04:53:38.542Z,15.30
2018-07-13T04:56:33.260Z,15.50
2018-07-13T04:59:24.410Z,15.60
2018-07-13T05:02:21.285Z,15.70
2018-07-13T05:05:12.294Z,15.70
2018-07-13T05:08:07.394Z,15.90
2018-07-13T05:10:58.934Z,16.00
2018-07-13T05:13:54.607Z,16.10
2018-07-13T05:16:45.949Z,16.30
2018-07-13T05:19:40.739Z,16.40
2018-07-13T05:22:32.080Z,16.60
2018-07-13T05:25:26.969Z,16.60
2018-07-13T05:28:18.414Z,16.70
2018-07-13T05:31:13.045Z,16.70
2018-07-13T05:34:04.505Z,16.80
2018-07-13T05:36:59.255Z,16.90
2018-07-13T05:39:50.365Z,17.00
2018-07-13T05:42:46.390Z,17.10
2018-07-13T05:45:37.870Z,17.20
2018-07-13T05:48:34.420Z,17.20
2018-07-13T05:51:25.762Z,17.40
2018-07-13T05:54:21.549Z,17.40
2018-07-13T05:57:12.596Z,17.40
2018-07-13T06:00:08.625Z,17.60
2018-07-13T06:02:59.545Z,17.60
2018-07-13T06:05:53.813Z,17.70
2018-07-13T06:11:30.992Z,17.80
2018-07-13T06:14:22.649Z,17.90
2018-07-13T06:17:17.185Z,18.00
2018-07-13T06:20:08.451Z,18.10
2018-07-13T06:23:04.296Z,18.10
2018-07-13T06:25:55.612Z,18.10
2018-07-13T06:28:51.416Z,18.10
2018-07-13T06:31:42.476Z,18.10
2018-07-13T06:34:38.543Z,18.30
2018-07-13T06:37:29.553Z,18.20
2018-07-13T06:40:23.842Z,18.20
2018-07-13T06:43:15.580Z,18.40
2018-07-13T06:46:10.046Z,18.60
2018-07-13T06:49:01.202Z,18.80
2018-07-13T06:51:56.315Z,18.90
2018-07-13T06:54:47.851Z,19.00
2018-07-13T06:57:54.145Z,19.00
2018-07-13T07:01:17.579Z,19.10
2018-07-13T07:04:43.780Z,19.30
2018-07-13T07:07:36.128Z,19.40
2018-07-13T07:10:30.881Z,19.30
2018-07-13T07:13:40.275Z,19.40
2018-07-13T07:16:35.206Z,19.20
2018-07-13T07:19:26.765Z,19.20
2018-07-13T07:22:22.233Z,19.50
2018-07-13T07:25:14.640Z,19.20
2018-07-13T07:28:10.377Z,19.40
2018-07-13T07:31:03.031Z,19.60
2018-07-13T07:33:58.305Z,19.60
2018-07-13T07:36:49.296Z,19.70
2018-07-13T07:39:44.518Z,19.40
2018-07-13T07:42:35.356Z,19.60
2018-07-13T07:45:34.418Z,19.60
2018-07-13T07:48:25.422Z,19.50
2018-07-13T07:51:21.501Z,19.40
2018-07-13T07:54:12.413Z,19.30
2018-07-13T07:57:07.633Z,19.00
2018-07-13T07:59:59.354Z,18.90
2018-07-13T08:02:55.621Z,19.10
2018-07-13T08:08:34.543Z,19.20
2018-07-13T08:11:27.373Z,19.30
2018-07-13T08:14:23.546Z,19.40
2018-07-13T08:17:14.463Z,19.50
2018-07-13T08:20:09.696Z,19.60
2018-07-13T08:23:02.399Z,19.70
2018-07-13T08:25:59.451Z,19.60
2018-07-13T08:28:52.952Z,20.40
2018-07-13T08:31:48.419Z,21.00
2018-07-13T08:34:39.555Z,20.60
2018-07-13T08:37:35.555Z,20.40
2018-07-13T08:40:26.670Z,20.10
2018-07-13T08:46:11.225Z,19.90
2018-07-13T08:49:06.101Z,19.50
2018-07-13T08:51:57.185Z,19.40
2018-07-13T08:54:52.451Z,19.40
2018-07-13T08:57:44.145Z,19.40
2018-07-13T09:00:39.368Z,19.70
2018-07-13T09:03:30.257Z,19.80
2018-07-13T09:06:25.627Z,19.70
2018-07-13T09:09:21.393Z,19.60
2018-07-13T09:12:16.327Z,19.60
2018-07-13T09:15:07.945Z,19.70
2018-07-13T09:18:04.067Z,19.70
2018-07-13T09:20:55.388Z,19.80
2018-07-13T09:23:51.465Z,19.70
2018-07-13T09:26:42.485Z,19.40
2018-07-13T09:29:38.542Z,19.20
2018-07-13T09:32:29.440Z,19.40
2018-07-13T09:35:24.792Z,19.20
2018-07-13T09:38:16.271Z,19.40
2018-07-13T09:41:10.845Z,19.50
2018-07-13T09:44:02.425Z,19.50
2018-07-13T09:46:57.243Z,19.20
2018-07-13T09:49:49.640Z,19.30
2018-07-13T09:52:44.182Z,19.50
2018-07-13T09:55:35.309Z,19.50
2018-07-13T09:58:39.426Z,19.70
2018-07-13T10:01:30.515Z,19.60
2018-07-13T10:04:25.676Z,19.60
2018-07-13T10:07:17.326Z,19.80
2018-07-13T10:10:12.771Z,19.90
2018-07-13T10:13:04.171Z,20.20
2018-07-13T10:16:00.789Z,20.20
2018-07-13T10:18:52.689Z,20.00
2018-07-13T10:21:50.534Z,20.00
2018-07-13T10:24:42.866Z,20.40
2018-07-13T10:27:40.416Z,20.40
2018-07-13T10:30:31.517Z,20.60
2018-07-13T10:33:28.371Z,20.60
2018-07-13T10:36:22.568Z,21.00
2018-07-13T10:39:19.084Z,21.00
2018-07-13T10:42:10.618Z,21.40
2018-07-13T10:45:05.447Z,22.00
2018-07-13T10:47:57.108Z,22.70
2018-07-13T10:50:52.564Z,23.40
2018-07-13T10:53:45.310Z,23.50
2018-07-13T10:56:40.603Z,23.50
2018-07-13T10:59:32.848Z,24.10
2018-07-13T11:02:28.388Z,24.40
2018-07-13T11:05:20.388Z,25.10
2018-07-13T11:08:15.728Z,25.30
2018-07-13T11:11:07.383Z,25.80
2018-07-13T11:14:03.702Z,26.10
2018-07-13T11:16:54.995Z,25.70
2018-07-13T11:19:50.543Z,26.40
2018-07-13T11:22:43.538Z,26.30
2018-07-13T11:25:39.488Z,27.40
2018-07-13T11:28:30.759Z,27.50
2018-07-13T11:31:26.675Z,27.30
2018-07-13T11:34:18.345Z,27.10
2018-07-13T11:37:14.836Z,27.60
2018-07-13T11:40:06.113Z,27.30
2018-07-13T11:43:01.920Z,27.60
2018-07-13T11:45:53.147Z,28.00
2018-07-13T11:48:47.947Z,27.70
2018-07-13T11:51:39.109Z,28.10
2018-07-13T11:54:33.132Z,28.00
2018-07-13T11:57:25.104Z,27.70
2018-07-13T12:00:19.362Z,27.40
2018-07-13T12:03:12.213Z,27.60
2018-07-13T12:06:07.627Z,27.20
2018-07-13T12:08:58.358Z,28.30
2018-07-13T12:11:54.608Z,27.70
2018-07-13T12:14:45.597Z,27.90
2018-07-13T12:17:42.384Z,28.50
2018-07-13T12:20:33.647Z,28.30
2018-07-13T12:23:29.593Z,28.40
2018-07-13T12:26:20.682Z,28.90
2018-07-13T12:29:18.356Z,29.20
2018-07-13T12:32:09.747Z,29.30
2018-07-13T12:35:06.496Z,29.20
2018-07-13T12:37:58.395Z,29.10
2018-07-13T12:40:54.544Z,29.00
2018-07-13T12:43:45.563Z,29.00
2018-07-13T12:46:41.651Z,29.10
2018-07-13T12:49:28.541Z,29.40
2018-07-13T12:52:16.111Z,28.70
2018-07-13T12:54:59.602Z,29.40
2018-07-13T12:57:48.731Z,29.50
2018-07-13T13:00:32.764Z,28.90
2018-07-13T13:03:19.412Z,29.30
2018-07-13T13:06:03.504Z,29.50
2018-07-13T13:08:50.256Z,29.40
2018-07-13T13:11:34.792Z,29.40
2018-07-13T13:14:26.512Z,29.30
2018-07-13T13:17:10.402Z,30.00
2018-07-13T13:19:58.092Z,30.20
2018-07-13T13:22:42.613Z,29.90
2018-07-13T13:28:06.325Z,29.80
2018-07-13T13:30:53.276Z,29.30
2018-07-13T13:33:37.326Z,29.40
2018-07-13T13:36:24.236Z,29.70
2018-07-13T13:39:08.422Z,30.10
2018-07-13T13:41:56.743Z,30.50
2018-07-13T13:44:40.802Z,30.80
2018-07-13T13:47:28.415Z,30.50
2018-07-13T13:50:12.710Z,30.50
2018-07-13T13:52:59.262Z,31.10
2018-07-13T13:55:42.821Z,30.90
2018-07-13T13:58:30.938Z,30.10
2018-07-13T14:01:15.310Z,30.50
2018-07-13T14:04:02.621Z,30.90
2018-07-13T14:06:46.846Z,30.60
2018-07-13T14:09:34.327Z,30.90
2018-07-13T14:12:18.378Z,31.10
2018-07-13T14:15:12.000Z,30.80
2018-07-13T14:17:55.448Z,31.10
2018-07-13T14:20:49.433Z,30.70
2018-07-13T14:23:34.002Z,30.90
2018-07-13T14:26:22.177Z,30.90
2018-07-13T14:29:05.935Z,31.20
2018-07-13T14:31:53.819Z,31.30
2018-07-13T14:34:38.073Z,31.00
2018-07-13T14:37:24.626Z,31.20
2018-07-13T14:40:08.130Z,30.70
2018-07-13T14:42:57.107Z,30.80
2018-07-13T14:45:41.319Z,30.70
2018-07-13T14:48:29.817Z,30.60
2018-07-13T14:51:13.912Z,30.10
2018-07-13T14:54:00.523Z,29.80
2018-07-13T14:56:44.753Z,29.00
2018-07-13T14:59:31.400Z,28.00
2018-07-13T15:02:15.462Z,27.90
2018-07-13T15:05:02.157Z,28.10
2018-07-13T15:07:45.883Z,28.10
2018-07-13T15:10:33.866Z,28.40
2018-07-13T15:13:18.182Z,28.50
2018-07-13T15:16:09.174Z,28.20
2018-07-13T15:18:52.907Z,28.50
2018-07-13T15:21:41.817Z,28.60
2018-07-13T15:24:25.669Z,28.60
2018-07-13T15:27:13.818Z,28.30
2018-07-13T15:29:58.026Z,28.70
2018-07-13T15:32:49.377Z,28.50
2018-07-13T15:35:34.415Z,28.40
2018-07-13T15:38:36.808Z,28.10
2018-07-13T15:41:20.694Z,27.70
2018-07-13T15:44:08.412Z,27.30
2018-07-13T15:46:53.677Z,27.50
2018-07-13T15:49:40.157Z,27.50
2018-07-13T15:52:23.779Z,27.10
2018-07-13T15:55:12.777Z,27.00
2018-07-13T15:57:57.137Z,27.10
2018-07-13T16:00:44.462Z,27.20
2018-07-13T16:03:28.886Z,27.10
2018-07-13T16:06:16.046Z,26.90
2018-07-13T16:08:59.799Z,26.50
2018-07-13T16:11:49.587Z,26.30
2018-07-13T16:14:33.696Z,25.90
2018-07-13T16:17:21.386Z,25.90
2018-07-13T16:20:05.181Z,25.60
2018-07-13T16:22:53.906Z,25.30
2018-07-13T16:25:38.541Z,25.10
2018-07-13T16:28:25.604Z,25.00
2018-07-13T16:31:10.601Z,24.90
2018-07-13T16:33:57.281Z,24.80
2018-07-13T16:36:41.462Z,24.80
2018-07-13T16:39:29.882Z,24.80
2018-07-13T16:42:13.652Z,24.80
2018-07-13T16:45:01.741Z,24.70
2018-07-13T16:47:45.917Z,24.60
2018-07-13T16:50:34.275Z,24.50
2018-07-13T16:53:18.937Z,24.50
2018-07-13T16:56:07.733Z,24.40
2018-07-13T16:58:51.847Z,24.30
2018-07-13T17:04:15.560Z,24.10
2018-07-13T17:07:03.788Z,24.10
2018-07-13T17:09:48.135Z,24.00
2018-07-13T17:12:36.891Z,24.10
2018-07-13T17:15:21.036Z,23.90
2018-07-13T17:18:09.032Z,23.80
2018-07-13T17:20:53.005Z,23.80
2018-07-13T17:23:40.710Z,23.70
2018-07-13T17:26:24.663Z,23.60
2018-07-13T17:29:16.362Z,23.60
2018-07-13T17:32:00.350Z,23.50
2018-07-13T17:34:47.687Z,23.50
2018-07-13T17:37:32.855Z,23.10
2018-07-13T17:40:21.247Z,23.10
2018-07-13T17:43:06.009Z,23.10
2018-07-13T17:45:54.795Z,22.80
2018-07-13T17:48:38.795Z,22.90
2018-07-13T17:51:25.635Z,22.80
2018-07-13T17:54:09.681Z,22.80
2018-07-13T17:56:58.941Z,22.80
2018-07-13T17:59:44.435Z,22.60
2018-07-13T18:02:32.586Z,22.50
2018-07-13T18:05:16.335Z,22.50
2018-07-13T18:08:06.994Z,22.40
2018-07-13T18:10:50.594Z,22.30
2018-07-13T18:16:50.735Z,22.00
2018-07-13T18:19:34.974Z,21.90
2018-07-13T18:22:23.501Z,21.80
2018-07-13T18:25:07.123Z,21.70
2018-07-13T18:27:55.027Z,21.30
2018-07-13T18:30:38.794Z,21.40
2018-07-13T18:33:26.091Z,21.20
2018-07-13T18:36:10.086Z,21.30
2018-07-13T18:38:56.635Z,21.20
2018-07-13T18:41:40.093Z,21.20
2018-07-13T18:44:27.529Z,21.10
2018-07-13T18:47:12.146Z,21.10
2018-07-13T18:50:00.110Z,20.90
2018-07-13T18:52:44.282Z,20.70
2018-07-13T18:55:32.586Z,20.60
2018-07-13T19:00:57.888Z,20.50
2018-07-13T19:03:41.774Z,20.40
2018-07-13T19:06:29.594Z,20.60
2018-07-13T19:09:14.814Z,20.50
2018-07-13T19:12:02.237Z,20.40
2018-07-13T19:14:46.511Z,20.40
2018-07-13T19:17:34.888Z,20.40
2018-07-13T19:20:19.284Z,20.30
2018-07-13T19:23:06.575Z,20.30
2018-07-13T19:25:50.335Z,20.20
2018-07-13T19:28:37.235Z,20.10
2018-07-13T19:31:21.004Z,20.10
2018-07-13T19:34:09.067Z,20.00
2018-07-13T19:36:53.682Z,19.90
2018-07-13T19:39:41.656Z,19.80
2018-07-13T19:42:25.493Z,19.90
2018-07-13T19:45:13.358Z,19.80
2018-07-13T19:47:56.828Z,19.70
2018-07-13T19:50:49.487Z,19.60
2018-07-13T19:53:33.037Z,19.50
2018-07-13T19:56:20.295Z,19.50
2018-07-13T19:59:04.787Z,19.40
2018-07-13T20:01:52.915Z,19.30
2018-07-13T20:04:37.175Z,19.30
2018-07-13T20:07:24.495Z,19.20
2018-07-13T20:10:08.639Z,19.20
2018-07-13T20:12:56.375Z,19.10
2018-07-13T20:15:40.355Z,19.10
2018-07-13T20:18:31.367Z,19.00
2018-07-13T20:21:15.676Z,19.20
2018-07-13T20:24:03.358Z,19.30
2018-07-13T20:26:47.255Z,19.30
2018-07-13T20:29:36.294Z,19.30
2018-07-13T20:32:20.394Z,19.30
2018-07-13T20:35:07.615Z,19.20
2018-07-13T20:37:52.176Z,19.20
2018-07-13T20:40:39.254Z,19.30
2018-07-13T20:43:23.235Z,19.10
2018-07-13T20:46:11.855Z,19.00
2018-07-13T20:48:55.634Z,18.80
2018-07-13T20:51:43.617Z,18.80
2018-07-13T20:54:28.446Z,18.80
2018-07-13T20:57:17.135Z,18.70
2018-07-13T21:00:01.334Z,18.70
2018-07-13T21:02:48.895Z,18.80
2018-07-13T21:05:34.175Z,18.80
2018-07-13T21:08:21.387Z,18.70
2018-07-13T21:11:04.897Z,18.70
2018-07-13T21:13:53.174Z,18.60
2018-07-13T21:16:38.094Z,18.70
2018-07-13T21:19:25.588Z,18.70
2018-07-13T21:22:09.967Z,18.80
2018-07-13T21:24:57.381Z,18.80
2018-07-13T21:27:42.209Z,18.70
2018-07-13T21:30:30.907Z,18.70
2018-07-13T21:33:14.607Z,18.60
2018-07-13T21:36:03.447Z,18.70
2018-07-13T21:38:47.707Z,18.60
2018-07-13T21:41:36.027Z,18.50
2018-07-13T21:44:20.267Z,18.60
2018-07-13T21:47:07.788Z,18.40
2018-07-13T21:49:51.747Z,18.40
2018-07-13T21:52:39.927Z,18.50
2018-07-13T21:55:23.856Z,18.40
2018-07-13T21:58:12.911Z,18.40
2018-07-13T22:00:57.147Z,18.40
2018-07-13T22:03:44.647Z,18.20
2018-07-13T22:06:28.847Z,18.10
2018-07-13T22:09:18.147Z,18.10
2018-07-13T22:12:01.811Z,18.00
2018-07-13T22:14:48.827Z,18.00
2018-07-13T22:17:32.567Z,18.00
2018-07-13T22:20:21.615Z,18.00
2018-07-13T22:23:05.417Z,18.00
2018-07-13T22:25:53.208Z,17.90
2018-07-13T22:28:36.887Z,17.80
2018-07-13T22:31:24.927Z,17.70
2018-07-13T22:34:09.108Z,17.70
2018-07-13T22:36:56.748Z,17.70
2018-07-13T22:39:40.700Z,17.70
2018-07-13T22:42:29.288Z,17.70
2018-07-13T22:45:13.667Z,17.60
2018-07-13T22:48:01.988Z,17.60
2018-07-13T22:53:24.468Z,17.60
2018-07-13T22:56:07.988Z,17.50
2018-07-13T22:58:57.047Z,17.50
2018-07-13T23:01:42.510Z,17.40
2018-07-13T23:04:29.639Z,17.40
2018-07-13T23:07:13.828Z,17.40
2018-07-13T23:10:02.208Z,17.30
2018-07-13T23:12:45.688Z,17.30
2018-07-13T23:15:33.948Z,17.20
2018-07-13T23:18:17.407Z,17.10
2018-07-13T23:21:04.668Z,17.10
2018-07-13T23:23:48.943Z,17.10
2018-07-13T23:26:36.448Z,17.00
2018-07-13T23:29:20.720Z,17.00
2018-07-13T23:34:55.927Z,16.90
2018-07-13T23:37:42.548Z,16.90
2018-07-13T23:40:26.640Z,16.90
2018-07-13T23:43:15.048Z,16.90
2018-07-13T23:45:59.387Z,16.90
2018-07-13T23:48:46.731Z,16.80
2018-07-13T23:51:30.407Z,16.80
2018-07-13T23:54:17.587Z,16.80
2018-07-13T23:57:01.647Z,16.80
2018-07-13T23:59:49.226Z,16.70
